sensor_id;sensor_type;location;lat;lon;timestamp;P1;P2;P0
62631;PMS5003;48703;51.248;-0.546;2023-04-06T00:00:53;17.59;16.00;
62631;PMS5003;48703;51.248;-0.546;2023-04-06T00:03:55;15.90;14.91;
62631;PMS5003;48703;51.248;-0.546;2023-04-06T00:06:56;17.47;13.06;
62631;PMS5003;48703;51.248;-0.546;2023-04-06T00:09:58;14.60;13.73;
62631;PMS5003;48703;51.248;-0.546;2023-04-06T00:13:00;14.34;12.26;
62631;PMS5003;48703;51.248;-0.546;2023-04-06T00:16:02;12.66;12.64;
62631;PMS5003;48703;51.248;-0.546;2023-04-06T00:19:03;10.96;10.47;
62631;PMS5003;48703;51.248;-0.546;2023-04-06T00:22:05;11.99;11.77;
62631;PMS5003;48703;51.248;-0.546;2023-04-06T00:25:07;10.83;10.59;
62631;PMS5003;48703;51.248;-0.546;2023-04-06T00:28:08;11.14;10.43;
62631;PMS5003;48703;51.248;-0.546;2023-04-06T00:31:09;12.04;11.56;
62631;PMS5003;48703;51.248;-0.546;2023-04-06T00:34:11;11.13;10.50;
62631;PMS5003;48703;51.248;-0.546;2023-04-06T00:37:12;9.70;9.36;
62631;PMS5003;48703;51.248;-0.546;2023-04-06T00:40:14;10.64;9.99;
62631;PMS5003;48703;51.248;-0.546;2023-04-06T00:43:16;9.26;8.41;
62631;PMS5003;48703;51.248;-0.546;2023-04-06T00:46:17;10.27;9.13;
62631;PMS5003;48703;51.248;-0.546;2023-04-06T00:49:19;9.79;9.33;
62631;PMS5003;48703;51.248;-0.546;2023-04-06T00:52:21;10.67;10.54;
62631;PMS5003;48703;51.248;-0.546;2023-04-06T00:55:22;9.87;9.13;
62631;PMS5003;48703;51.248;-0.546;2023-04-06T00:58:24;10.26;9.77;
62631;PMS5003;48703;51.248;-0.546;2023-04-06T01:01:26;10.20;9.47;
62631;PMS5003;48703;51.248;-0.546;2023-04-06T01:04:27;9.63;9.39;
62631;PMS5003;48703;51.248;-0.546;2023-04-06T01:07:29;10.37;9.77;
62631;PMS5003;48703;51.248;-0.546;2023-04-06T01:10:30;10.37;9.87;
62631;PMS5003;48703;51.248;-0.546;2023-04-06T01:13:32;11.56;10.23;
62631;PMS5003;48703;51.248;-0.546;2023-04-06T01:16:34;11.17;9.83;
62631;PMS5003;48703;51.248;-0.546;2023-04-06T01:19:36;9.70;9.13;
62631;PMS5003;48703;51.248;-0.546;2023-04-06T01:22:37;11.40;11.13;
62631;PMS5003;48703;51.248;-0.546;2023-04-06T01:25:39;11.81;11.14;
62631;PMS5003;48703;51.248;-0.546;2023-04-06T01:28:40;10.76;9.99;
62631;PMS5003;48703;51.248;-0.546;2023-04-06T01:31:42;10.30;9.66;
62631;PMS5003;48703;51.248;-0.546;2023-04-06T01:34:44;11.84;10.46;
62631;PMS5003;48703;51.248;-0.546;2023-04-06T01:37:45;10.74;9.67;
62631;PMS5003;48703;51.248;-0.546;2023-04-06T01:40:47;10.16;8.87;
62631;PMS5003;48703;51.248;-0.546;2023-04-06T01:43:49;12.24;10.94;
62631;PMS5003;48703;51.248;-0.546;2023-04-06T01:46:50;11.72;11.72;
62631;PMS5003;48703;51.248;-0.546;2023-04-06T01:49:52;11.74;10.79;
62631;PMS5003;48703;51.248;-0.546;2023-04-06T01:52:54;12.09;10.81;
62631;PMS5003;48703;51.248;-0.546;2023-04-06T01:55:55;9.57;9.57;
62631;PMS5003;48703;51.248;-0.546;2023-04-06T01:58:57;11.71;10.26;
62631;PMS5003;48703;51.248;-0.546;2023-04-06T02:01:59;10.03;10.03;
62631;PMS5003;48703;51.248;-0.546;2023-04-06T02:05:01;9.19;9.19;
62631;PMS5003;48703;51.248;-0.546;2023-04-06T02:08:02;8.60;7.99;
62631;PMS5003;48703;51.248;-0.546;2023-04-06T02:11:04;10.26;8.57;
62631;PMS5003;48703;51.248;-0.546;2023-04-06T02:14:05;10.21;8.39;
62631;PMS5003;48703;51.248;-0.546;2023-04-06T02:17:07;8.66;8.23;
62631;PMS5003;48703;51.248;-0.546;2023-04-06T02:20:09;9.21;8.31;
62631;PMS5003;48703;51.248;-0.546;2023-04-06T02:23:10;8.93;8.56;
62631;PMS5003;48703;51.248;-0.546;2023-04-06T02:26:12;9.26;8.24;
62631;PMS5003;48703;51.248;-0.546;2023-04-06T02:29:14;8.21;8.11;
62631;PMS5003;48703;51.248;-0.546;2023-04-06T02:32:16;9.20;8.69;
62631;PMS5003;48703;51.248;-0.546;2023-04-06T02:35:17;7.59;7.33;
62631;PMS5003;48703;51.248;-0.546;2023-04-06T02:38:19;7.26;7.26;
62631;PMS5003;48703;51.248;-0.546;2023-04-06T02:41:20;7.27;6.97;
62631;PMS5003;48703;51.248;-0.546;2023-04-06T02:44:22;5.91;5.91;
62631;PMS5003;48703;51.248;-0.546;2023-04-06T02:47:24;8.00;7.37;
62631;PMS5003;48703;51.248;-0.546;2023-04-06T02:50:25;6.09;5.53;
62631;PMS5003;48703;51.248;-0.546;2023-04-06T02:53:27;6.47;4.54;
62631;PMS5003;48703;51.248;-0.546;2023-04-06T02:56:29;6.34;5.69;
62631;PMS5003;48703;51.248;-0.546;2023-04-06T02:59:31;5.43;5.34;
62631;PMS5003;48703;51.248;-0.546;2023-04-06T03:02:32;6.09;6.09;
62631;PMS5003;48703;51.248;-0.546;2023-04-06T03:05:34;4.66;4.36;
62631;PMS5003;48703;51.248;-0.546;2023-04-06T03:08:36;6.53;5.87;
62631;PMS5003;48703;51.248;-0.546;2023-04-06T03:11:37;4.54;4.23;
62631;PMS5003;48703;51.248;-0.546;2023-04-06T03:14:39;5.66;4.63;
62631;PMS5003;48703;51.248;-0.546;2023-04-06T03:17:41;6.30;6.30;
62631;PMS5003;48703;51.248;-0.546;2023-04-06T03:20:42;5.79;5.54;
62631;PMS5003;48703;51.248;-0.546;2023-04-06T03:23:44;5.04;5.04;
62631;PMS5003;48703;51.248;-0.546;2023-04-06T03:26:46;5.34;5.34;
62631;PMS5003;48703;51.248;-0.546;2023-04-06T03:29:47;5.39;5.39;
62631;PMS5003;48703;51.248;-0.546;2023-04-06T03:32:49;6.66;6.59;
62631;PMS5003;48703;51.248;-0.546;2023-04-06T03:35:51;5.13;4.70;
62631;PMS5003;48703;51.248;-0.546;2023-04-06T03:38:52;5.80;5.80;
62631;PMS5003;48703;51.248;-0.546;2023-04-06T03:41:54;7.17;6.66;
62631;PMS5003;48703;51.248;-0.546;2023-04-06T03:44:56;6.77;6.34;
62631;PMS5003;48703;51.248;-0.546;2023-04-06T03:47:57;6.81;6.37;
62631;PMS5003;48703;51.248;-0.546;2023-04-06T03:50:59;6.87;6.69;
62631;PMS5003;48703;51.248;-0.546;2023-04-06T03:54:01;6.24;6.07;
62631;PMS5003;48703;51.248;-0.546;2023-04-06T03:57:03;6.70;6.40;
62631;PMS5003;48703;51.248;-0.546;2023-04-06T04:00:05;7.39;7.30;
62631;PMS5003;48703;51.248;-0.546;2023-04-06T04:03:06;6.91;6.87;
62631;PMS5003;48703;51.248;-0.546;2023-04-06T04:06:07;6.70;6.60;
62631;PMS5003;48703;51.248;-0.546;2023-04-06T04:09:09;6.64;6.64;
62631;PMS5003;48703;51.248;-0.546;2023-04-06T04:12:11;7.09;6.40;
62631;PMS5003;48703;51.248;-0.546;2023-04-06T04:15:12;7.87;7.61;
62631;PMS5003;48703;51.248;-0.546;2023-04-06T04:18:14;7.74;7.47;
62631;PMS5003;48703;51.248;-0.546;2023-04-06T04:21:16;7.27;7.13;
62631;PMS5003;48703;51.248;-0.546;2023-04-06T04:24:18;8.93;8.30;
62631;PMS5003;48703;51.248;-0.546;2023-04-06T04:27:19;8.54;8.31;
62631;PMS5003;48703;51.248;-0.546;2023-04-06T04:30:21;9.46;8.90;
62631;PMS5003;48703;51.248;-0.546;2023-04-06T04:33:23;8.53;8.34;
62631;PMS5003;48703;51.248;-0.546;2023-04-06T04:36:24;11.57;10.67;
62631;PMS5003;48703;51.248;-0.546;2023-04-06T04:39:26;11.29;11.16;
62631;PMS5003;48703;51.248;-0.546;2023-04-06T04:42:27;13.09;11.93;
62631;PMS5003;48703;51.248;-0.546;2023-04-06T04:45:28;13.14;13.04;
62631;PMS5003;48703;51.248;-0.546;2023-04-06T04:48:30;13.64;12.09;
62631;PMS5003;48703;51.248;-0.546;2023-04-06T04:51:31;13.33;11.87;
62631;PMS5003;48703;51.248;-0.546;2023-04-06T04:54:33;11.97;11.53;
62631;PMS5003;48703;51.248;-0.546;2023-04-06T04:57:35;12.54;11.86;
62631;PMS5003;48703;51.248;-0.546;2023-04-06T05:00:36;13.96;11.14;
62631;PMS5003;48703;51.248;-0.546;2023-04-06T05:03:38;11.77;11.49;
62631;PMS5003;48703;51.248;-0.546;2023-04-06T05:06:40;11.66;10.60;
62631;PMS5003;48703;51.248;-0.546;2023-04-06T05:09:41;11.78;10.64;
62631;PMS5003;48703;51.248;-0.546;2023-04-06T05:12:42;13.00;12.45;
62631;PMS5003;48703;51.248;-0.546;2023-04-06T05:15:44;11.23;10.29;
62631;PMS5003;48703;51.248;-0.546;2023-04-06T05:18:47;11.40;11.40;
62631;PMS5003;48703;51.248;-0.546;2023-04-06T05:21:47;12.07;10.14;
62631;PMS5003;48703;51.248;-0.546;2023-04-06T05:24:49;10.11;9.81;
62631;PMS5003;48703;51.248;-0.546;2023-04-06T05:27:50;10.56;9.60;
62631;PMS5003;48703;51.248;-0.546;2023-04-06T05:30:52;11.26;9.84;
62631;PMS5003;48703;51.248;-0.546;2023-04-06T05:33:53;9.70;9.04;
62631;PMS5003;48703;51.248;-0.546;2023-04-06T05:36:55;9.79;9.13;
62631;PMS5003;48703;51.248;-0.546;2023-04-06T05:39:57;9.07;8.43;
62631;PMS5003;48703;51.248;-0.546;2023-04-06T05:42:58;9.96;9.17;
62631;PMS5003;48703;51.248;-0.546;2023-04-06T05:46:00;10.84;9.53;
62631;PMS5003;48703;51.248;-0.546;2023-04-06T05:49:01;12.70;10.53;
62631;PMS5003;48703;51.248;-0.546;2023-04-06T05:52:03;8.83;8.23;
62631;PMS5003;48703;51.248;-0.546;2023-04-06T05:55:05;11.16;10.69;
62631;PMS5003;48703;51.248;-0.546;2023-04-06T05:58:06;10.56;9.47;
62631;PMS5003;48703;51.248;-0.546;2023-04-06T06:01:07;10.20;9.71;
62631;PMS5003;48703;51.248;-0.546;2023-04-06T06:04:09;8.19;7.67;
62631;PMS5003;48703;51.248;-0.546;2023-04-06T06:07:11;9.69;8.70;
62631;PMS5003;48703;51.248;-0.546;2023-04-06T06:10:12;10.39;9.39;
62631;PMS5003;48703;51.248;-0.546;2023-04-06T06:13:14;11.40;10.93;
62631;PMS5003;48703;51.248;-0.546;2023-04-06T06:16:16;9.21;9.04;
62631;PMS5003;48703;51.248;-0.546;2023-04-06T06:19:17;7.97;7.14;
62631;PMS5003;48703;51.248;-0.546;2023-04-06T06:22:18;8.88;8.65;
62631;PMS5003;48703;51.248;-0.546;2023-04-06T06:25:20;8.09;7.96;
62631;PMS5003;48703;51.248;-0.546;2023-04-06T06:28:22;9.74;8.31;
62631;PMS5003;48703;51.248;-0.546;2023-04-06T06:31:24;9.70;8.54;
62631;PMS5003;48703;51.248;-0.546;2023-04-06T06:34:25;8.64;8.07;
62631;PMS5003;48703;51.248;-0.546;2023-04-06T06:37:27;8.71;8.09;
62631;PMS5003;48703;51.248;-0.546;2023-04-06T06:40:28;8.37;7.04;
62631;PMS5003;48703;51.248;-0.546;2023-04-06T06:43:30;8.34;6.76;
62631;PMS5003;48703;51.248;-0.546;2023-04-06T06:46:32;7.04;6.31;
62631;PMS5003;48703;51.248;-0.546;2023-04-06T06:49:33;8.26;6.94;
62631;PMS5003;48703;51.248;-0.546;2023-04-06T06:52:35;6.20;5.84;
62631;PMS5003;48703;51.248;-0.546;2023-04-06T06:55:36;7.71;6.23;
62631;PMS5003;48703;51.248;-0.546;2023-04-06T06:58:38;7.34;7.34;
62631;PMS5003;48703;51.248;-0.546;2023-04-06T07:01:40;8.14;7.41;
62631;PMS5003;48703;51.248;-0.546;2023-04-06T07:04:41;5.97;5.40;
62631;PMS5003;48703;51.248;-0.546;2023-04-06T07:07:43;6.33;5.41;
62631;PMS5003;48703;51.248;-0.546;2023-04-06T07:10:45;5.26;4.93;
62631;PMS5003;48703;51.248;-0.546;2023-04-06T07:13:46;4.59;4.39;
62631;PMS5003;48703;51.248;-0.546;2023-04-06T07:16:48;6.20;5.83;
62631;PMS5003;48703;51.248;-0.546;2023-04-06T07:19:50;3.84;3.39;
62631;PMS5003;48703;51.248;-0.546;2023-04-06T07:22:51;4.17;2.70;
62631;PMS5003;48703;51.248;-0.546;2023-04-06T07:25:53;2.51;2.23;
62631;PMS5003;48703;51.248;-0.546;2023-04-06T07:28:55;2.51;1.84;
62631;PMS5003;48703;51.248;-0.546;2023-04-06T07:31:56;3.21;1.84;
62631;PMS5003;48703;51.248;-0.546;2023-04-06T07:34:58;3.73;1.96;
62631;PMS5003;48703;51.248;-0.546;2023-04-06T07:38:00;3.07;2.43;
62631;PMS5003;48703;51.248;-0.546;2023-04-06T07:41:01;1.77;1.77;
62631;PMS5003;48703;51.248;-0.546;2023-04-06T07:44:03;2.29;2.29;
62631;PMS5003;48703;51.248;-0.546;2023-04-06T07:47:04;1.94;1.94;
62631;PMS5003;48703;51.248;-0.546;2023-04-06T07:50:06;3.20;2.43;
62631;PMS5003;48703;51.248;-0.546;2023-04-06T07:53:08;3.76;2.87;
62631;PMS5003;48703;51.248;-0.546;2023-04-06T07:56:09;3.10;3.10;
62631;PMS5003;48703;51.248;-0.546;2023-04-06T07:59:11;2.81;2.11;
62631;PMS5003;48703;51.248;-0.546;2023-04-06T08:02:13;3.90;3.19;
62631;PMS5003;48703;51.248;-0.546;2023-04-06T08:05:14;4.11;2.61;
62631;PMS5003;48703;51.248;-0.546;2023-04-06T08:08:16;2.97;2.97;
62631;PMS5003;48703;51.248;-0.546;2023-04-06T08:11:17;3.24;3.24;
62631;PMS5003;48703;51.248;-0.546;2023-04-06T08:14:19;4.46;4.07;
62631;PMS5003;48703;51.248;-0.546;2023-04-06T08:17:20;3.97;3.63;
62631;PMS5003;48703;51.248;-0.546;2023-04-06T08:20:22;3.43;3.13;
62631;PMS5003;48703;51.248;-0.546;2023-04-06T08:23:24;5.39;4.41;
62631;PMS5003;48703;51.248;-0.546;2023-04-06T08:26:25;5.87;4.34;
62631;PMS5003;48703;51.248;-0.546;2023-04-06T08:29:27;4.37;3.56;
62631;PMS5003;48703;51.248;-0.546;2023-04-06T08:32:28;4.24;3.60;
62631;PMS5003;48703;51.248;-0.546;2023-04-06T08:35:30;4.23;3.93;
62631;PMS5003;48703;51.248;-0.546;2023-04-06T08:38:32;4.74;4.06;
62631;PMS5003;48703;51.248;-0.546;2023-04-06T08:41:33;5.51;4.79;
62631;PMS5003;48703;51.248;-0.546;2023-04-06T08:44:35;5.94;5.20;
62631;PMS5003;48703;51.248;-0.546;2023-04-06T08:47:36;6.03;4.13;
62631;PMS5003;48703;51.248;-0.546;2023-04-06T08:50:38;4.77;4.49;
62631;PMS5003;48703;51.248;-0.546;2023-04-06T08:53:39;5.17;4.51;
62631;PMS5003;48703;51.248;-0.546;2023-04-06T08:56:41;4.47;4.33;
62631;PMS5003;48703;51.248;-0.546;2023-04-06T08:59:42;4.51;4.47;
62631;PMS5003;48703;51.248;-0.546;2023-04-06T09:02:45;5.71;5.54;
62631;PMS5003;48703;51.248;-0.546;2023-04-06T09:05:45;4.51;4.21;
62631;PMS5003;48703;51.248;-0.546;2023-04-06T09:08:47;5.16;4.59;
62631;PMS5003;48703;51.248;-0.546;2023-04-06T09:11:49;7.67;6.21;
62631;PMS5003;48703;51.248;-0.546;2023-04-06T09:14:50;8.99;6.24;
62631;PMS5003;48703;51.248;-0.546;2023-04-06T09:17:51;6.31;6.00;
62631;PMS5003;48703;51.248;-0.546;2023-04-06T09:20:56;6.57;5.69;
62631;PMS5003;48703;51.248;-0.546;2023-04-06T09:23:59;7.50;5.26;
62631;PMS5003;48703;51.248;-0.546;2023-04-06T09:26:56;6.16;5.47;
62631;PMS5003;48703;51.248;-0.546;2023-04-06T09:30:06;6.79;5.53;
62631;PMS5003;48703;51.248;-0.546;2023-04-06T09:33:00;7.86;5.53;
62631;PMS5003;48703;51.248;-0.546;2023-04-06T09:36:01;5.24;4.51;
62631;PMS5003;48703;51.248;-0.546;2023-04-06T09:39:03;5.09;4.76;
62631;PMS5003;48703;51.248;-0.546;2023-04-06T09:42:04;4.81;4.54;
62631;PMS5003;48703;51.248;-0.546;2023-04-06T09:45:06;5.81;4.83;
62631;PMS5003;48703;51.248;-0.546;2023-04-06T09:48:07;5.80;4.63;
62631;PMS5003;48703;51.248;-0.546;2023-04-06T09:51:09;4.74;4.66;
62631;PMS5003;48703;51.248;-0.546;2023-04-06T09:54:11;4.77;4.09;
62631;PMS5003;48703;51.248;-0.546;2023-04-06T09:57:13;4.31;3.66;
62631;PMS5003;48703;51.248;-0.546;2023-04-06T10:00:15;4.16;4.03;
62631;PMS5003;48703;51.248;-0.546;2023-04-06T10:03:19;4.60;4.16;
62631;PMS5003;48703;51.248;-0.546;2023-04-06T10:06:18;4.31;4.11;
62631;PMS5003;48703;51.248;-0.546;2023-04-06T10:09:20;6.57;5.29;
62631;PMS5003;48703;51.248;-0.546;2023-04-06T10:12:21;4.51;4.26;
62631;PMS5003;48703;51.248;-0.546;2023-04-06T10:15:22;4.24;3.67;
62631;PMS5003;48703;51.248;-0.546;2023-04-06T10:18:24;4.86;4.01;
62631;PMS5003;48703;51.248;-0.546;2023-04-06T10:21:25;3.27;3.27;
62631;PMS5003;48703;51.248;-0.546;2023-04-06T10:24:27;4.89;4.10;
62631;PMS5003;48703;51.248;-0.546;2023-04-06T10:27:29;3.03;3.03;
62631;PMS5003;48703;51.248;-0.546;2023-04-06T10:30:31;3.87;3.43;
62631;PMS5003;48703;51.248;-0.546;2023-04-06T10:33:32;4.41;3.71;
62631;PMS5003;48703;51.248;-0.546;2023-04-06T10:36:34;3.63;3.63;
62631;PMS5003;48703;51.248;-0.546;2023-04-06T10:39:35;3.63;3.24;
62631;PMS5003;48703;51.248;-0.546;2023-04-06T10:42:37;3.67;3.33;
62631;PMS5003;48703;51.248;-0.546;2023-04-06T10:45:39;4.51;3.60;
62631;PMS5003;48703;51.248;-0.546;2023-04-06T10:48:41;2.73;2.39;
62631;PMS5003;48703;51.248;-0.546;2023-04-06T10:51:41;3.00;1.70;
62631;PMS5003;48703;51.248;-0.546;2023-04-06T10:54:43;3.94;3.26;
62631;PMS5003;48703;51.248;-0.546;2023-04-06T10:57:46;2.41;2.41;
62631;PMS5003;48703;51.248;-0.546;2023-04-06T11:00:47;3.63;2.90;
62631;PMS5003;48703;51.248;-0.546;2023-04-06T11:03:49;2.66;2.66;
62631;PMS5003;48703;51.248;-0.546;2023-04-06T11:06:50;3.50;3.07;
62631;PMS5003;48703;51.248;-0.546;2023-04-06T11:09:51;4.04;3.10;
62631;PMS5003;48703;51.248;-0.546;2023-04-06T11:12:53;2.74;2.74;
62631;PMS5003;48703;51.248;-0.546;2023-04-06T11:15:54;4.60;4.17;
62631;PMS5003;48703;51.248;-0.546;2023-04-06T11:18:56;1.90;1.90;
62631;PMS5003;48703;51.248;-0.546;2023-04-06T11:22:05;2.41;2.41;
62631;PMS5003;48703;51.248;-0.546;2023-04-06T11:25:04;2.76;2.54;
62631;PMS5003;48703;51.248;-0.546;2023-04-06T11:28:00;1.97;1.70;
62631;PMS5003;48703;51.248;-0.546;2023-04-06T11:31:02;2.74;2.44;
62631;PMS5003;48703;51.248;-0.546;2023-04-06T11:34:08;2.86;2.34;
62631;PMS5003;48703;51.248;-0.546;2023-04-06T11:37:07;2.04;1.83;
62631;PMS5003;48703;51.248;-0.546;2023-04-06T11:40:08;4.03;2.04;
62631;PMS5003;48703;51.248;-0.546;2023-04-06T11:43:10;2.77;2.54;
62631;PMS5003;48703;51.248;-0.546;2023-04-06T11:46:10;3.01;2.16;
62631;PMS5003;48703;51.248;-0.546;2023-04-06T11:49:12;2.40;1.67;
62631;PMS5003;48703;51.248;-0.546;2023-04-06T11:52:14;2.29;1.64;
62631;PMS5003;48703;51.248;-0.546;2023-04-06T11:55:15;2.20;1.99;
62631;PMS5003;48703;51.248;-0.546;2023-04-06T11:58:16;1.99;1.77;
62631;PMS5003;48703;51.248;-0.546;2023-04-06T12:01:18;2.74;2.44;
62631;PMS5003;48703;51.248;-0.546;2023-04-06T12:04:19;3.69;2.43;
62631;PMS5003;48703;51.248;-0.546;2023-04-06T12:07:21;3.96;2.97;
62631;PMS5003;48703;51.248;-0.546;2023-04-06T12:10:22;2.26;1.90;
62631;PMS5003;48703;51.248;-0.546;2023-04-06T12:13:24;1.89;1.89;
62631;PMS5003;48703;51.248;-0.546;2023-04-06T12:16:25;1.83;1.36;
62631;PMS5003;48703;51.248;-0.546;2023-04-06T12:19:27;2.84;2.33;
62631;PMS5003;48703;51.248;-0.546;2023-04-06T12:22:28;2.01;1.94;
62631;PMS5003;48703;51.248;-0.546;2023-04-06T12:25:30;1.37;1.07;
62631;PMS5003;48703;51.248;-0.546;2023-04-06T12:28:32;2.63;2.24;
62631;PMS5003;48703;51.248;-0.546;2023-04-06T12:31:34;2.19;1.37;
62631;PMS5003;48703;51.248;-0.546;2023-04-06T12:34:35;2.06;1.61;
62631;PMS5003;48703;51.248;-0.546;2023-04-06T12:37:36;2.26;0.89;
62631;PMS5003;48703;51.248;-0.546;2023-04-06T12:40:38;1.63;1.63;
62631;PMS5003;48703;51.248;-0.546;2023-04-06T12:43:39;1.39;1.20;
62631;PMS5003;48703;51.248;-0.546;2023-04-06T12:46:40;0.97;0.87;
62631;PMS5003;48703;51.248;-0.546;2023-04-06T12:49:42;1.07;1.07;
62631;PMS5003;48703;51.248;-0.546;2023-04-06T12:52:44;0.59;0.59;
62631;PMS5003;48703;51.248;-0.546;2023-04-06T12:55:45;1.36;1.23;
62631;PMS5003;48703;51.248;-0.546;2023-04-06T12:58:47;1.44;1.44;
62631;PMS5003;48703;51.248;-0.546;2023-04-06T13:01:48;1.36;0.93;
62631;PMS5003;48703;51.248;-0.546;2023-04-06T13:04:50;2.31;1.81;
62631;PMS5003;48703;51.248;-0.546;2023-04-06T13:07:51;2.77;2.23;
62631;PMS5003;48703;51.248;-0.546;2023-04-06T13:10:53;2.50;2.50;
62631;PMS5003;48703;51.248;-0.546;2023-04-06T13:13:55;2.00;2.00;
62631;PMS5003;48703;51.248;-0.546;2023-04-06T13:16:56;1.76;1.26;
62631;PMS5003;48703;51.248;-0.546;2023-04-06T13:19:58;2.53;2.37;
62631;PMS5003;48703;51.248;-0.546;2023-04-06T13:22:59;2.13;1.81;
62631;PMS5003;48703;51.248;-0.546;2023-04-06T13:26:02;1.54;1.54;
62631;PMS5003;48703;51.248;-0.546;2023-04-06T13:29:03;1.44;1.01;
62631;PMS5003;48703;51.248;-0.546;2023-04-06T13:32:04;1.01;0.96;
62631;PMS5003;48703;51.248;-0.546;2023-04-06T13:35:06;1.11;1.11;
62631;PMS5003;48703;51.248;-0.546;2023-04-06T13:38:07;0.87;0.80;
62631;PMS5003;48703;51.248;-0.546;2023-04-06T13:41:09;0.81;0.54;
62631;PMS5003;48703;51.248;-0.546;2023-04-06T13:44:10;1.41;0.77;
62631;PMS5003;48703;51.248;-0.546;2023-04-06T13:47:12;1.19;0.97;
62631;PMS5003;48703;51.248;-0.546;2023-04-06T13:50:14;0.67;0.50;
62631;PMS5003;48703;51.248;-0.546;2023-04-06T13:53:15;1.24;1.24;
62631;PMS5003;48703;51.248;-0.546;2023-04-06T13:56:17;1.30;1.19;
62631;PMS5003;48703;51.248;-0.546;2023-04-06T13:59:18;0.93;0.93;
62631;PMS5003;48703;51.248;-0.546;2023-04-06T14:02:20;1.06;0.59;
62631;PMS5003;48703;51.248;-0.546;2023-04-06T14:05:21;0.87;0.87;
62631;PMS5003;48703;51.248;-0.546;2023-04-06T14:08:23;0.26;0.26;
62631;PMS5003;48703;51.248;-0.546;2023-04-06T14:11:25;0.00;0.00;
62631;PMS5003;48703;51.248;-0.546;2023-04-06T14:14:26;0.71;0.71;
62631;PMS5003;48703;51.248;-0.546;2023-04-06T14:17:28;1.30;1.30;
62631;PMS5003;48703;51.248;-0.546;2023-04-06T14:20:30;1.09;0.61;
62631;PMS5003;48703;51.248;-0.546;2023-04-06T14:23:31;2.17;1.74;
62631;PMS5003;48703;51.248;-0.546;2023-04-06T14:26:33;0.90;0.54;
62631;PMS5003;48703;51.248;-0.546;2023-04-06T14:29:34;1.31;1.20;
62631;PMS5003;48703;51.248;-0.546;2023-04-06T14:32:36;3.50;2.43;
62631;PMS5003;48703;51.248;-0.546;2023-04-06T14:35:38;2.09;1.69;
62631;PMS5003;48703;51.248;-0.546;2023-04-06T14:38:39;0.76;0.76;
62631;PMS5003;48703;51.248;-0.546;2023-04-06T14:41:41;1.80;0.74;
62631;PMS5003;48703;51.248;-0.546;2023-04-06T14:44:42;0.93;0.93;
62631;PMS5003;48703;51.248;-0.546;2023-04-06T14:47:44;1.40;1.40;
62631;PMS5003;48703;51.248;-0.546;2023-04-06T14:50:51;1.27;1.27;
62631;PMS5003;48703;51.248;-0.546;2023-04-06T14:53:47;1.24;1.24;
62631;PMS5003;48703;51.248;-0.546;2023-04-06T14:56:49;3.00;1.59;
62631;PMS5003;48703;51.248;-0.546;2023-04-06T14:59:52;1.30;1.30;
62631;PMS5003;48703;51.248;-0.546;2023-04-06T15:02:52;1.67;1.67;
62631;PMS5003;48703;51.248;-0.546;2023-04-06T15:05:54;1.66;1.66;
62631;PMS5003;48703;51.248;-0.546;2023-04-06T15:08:55;21.19;17.96;
62631;PMS5003;48703;51.248;-0.546;2023-04-06T15:11:56;4.99;3.66;
62631;PMS5003;48703;51.248;-0.546;2023-04-06T15:14:58;5.80;5.47;
62631;PMS5003;48703;51.248;-0.546;2023-04-06T15:17:59;2.51;2.51;
62631;PMS5003;48703;51.248;-0.546;2023-04-06T15:21:01;2.27;1.59;
62631;PMS5003;48703;51.248;-0.546;2023-04-06T15:24:03;1.54;1.26;
62631;PMS5003;48703;51.248;-0.546;2023-04-06T15:27:04;1.36;1.36;
62631;PMS5003;48703;51.248;-0.546;2023-04-06T15:30:06;1.36;1.36;
62631;PMS5003;48703;51.248;-0.546;2023-04-06T15:33:07;0.86;0.86;
62631;PMS5003;48703;51.248;-0.546;2023-04-06T15:36:22;1.23;0.89;
62631;PMS5003;48703;51.248;-0.546;2023-04-06T15:39:10;0.73;0.61;
62631;PMS5003;48703;51.248;-0.546;2023-04-06T15:42:12;0.61;0.61;
62631;PMS5003;48703;51.248;-0.546;2023-04-06T15:45:14;0.56;0.56;
62631;PMS5003;48703;51.248;-0.546;2023-04-06T15:48:15;0.76;0.76;
62631;PMS5003;48703;51.248;-0.546;2023-04-06T15:51:17;1.80;1.67;
62631;PMS5003;48703;51.248;-0.546;2023-04-06T15:54:18;0.37;0.37;
62631;PMS5003;48703;51.248;-0.546;2023-04-06T15:57:20;0.63;0.63;
62631;PMS5003;48703;51.248;-0.546;2023-04-06T16:00:22;1.36;0.79;
62631;PMS5003;48703;51.248;-0.546;2023-04-06T16:03:23;0.26;0.00;
62631;PMS5003;48703;51.248;-0.546;2023-04-06T16:06:25;0.74;0.74;
62631;PMS5003;48703;51.248;-0.546;2023-04-06T16:09:26;1.06;0.80;
62631;PMS5003;48703;51.248;-0.546;2023-04-06T16:12:28;1.03;0.94;
62631;PMS5003;48703;51.248;-0.546;2023-04-06T16:15:29;1.31;1.27;
62631;PMS5003;48703;51.248;-0.546;2023-04-06T16:18:31;0.56;0.56;
62631;PMS5003;48703;51.248;-0.546;2023-04-06T16:21:32;1.19;0.63;
62631;PMS5003;48703;51.248;-0.546;2023-04-06T16:24:34;0.94;0.64;
62631;PMS5003;48703;51.248;-0.546;2023-04-06T16:27:35;0.83;0.83;
62631;PMS5003;48703;51.248;-0.546;2023-04-06T16:30:37;0.20;0.00;
62631;PMS5003;48703;51.248;-0.546;2023-04-06T16:33:38;0.79;0.79;
62631;PMS5003;48703;51.248;-0.546;2023-04-06T16:36:40;0.76;0.41;
62631;PMS5003;48703;51.248;-0.546;2023-04-06T16:39:42;1.04;0.79;
62631;PMS5003;48703;51.248;-0.546;2023-04-06T16:42:43;0.67;0.67;
62631;PMS5003;48703;51.248;-0.546;2023-04-06T16:45:48;0.97;0.03;
62631;PMS5003;48703;51.248;-0.546;2023-04-06T16:48:46;0.31;0.31;
62631;PMS5003;48703;51.248;-0.546;2023-04-06T16:51:48;0.41;0.00;
62631;PMS5003;48703;51.248;-0.546;2023-04-06T16:54:49;1.43;0.96;
62631;PMS5003;48703;51.248;-0.546;2023-04-06T16:57:53;0.41;0.41;
62631;PMS5003;48703;51.248;-0.546;2023-04-06T17:00:53;1.16;0.96;
62631;PMS5003;48703;51.248;-0.546;2023-04-06T17:03:54;0.43;0.43;
62631;PMS5003;48703;51.248;-0.546;2023-04-06T17:06:56;0.44;0.44;
62631;PMS5003;48703;51.248;-0.546;2023-04-06T17:09:58;1.11;0.94;
62631;PMS5003;48703;51.248;-0.546;2023-04-06T17:12:59;1.69;0.43;
62631;PMS5003;48703;51.248;-0.546;2023-04-06T17:16:01;0.57;0.57;
62631;PMS5003;48703;51.248;-0.546;2023-04-06T17:19:02;0.49;0.33;
62631;PMS5003;48703;51.248;-0.546;2023-04-06T17:22:04;0.00;0.00;
62631;PMS5003;48703;51.248;-0.546;2023-04-06T17:25:06;1.39;0.77;
62631;PMS5003;48703;51.248;-0.546;2023-04-06T17:28:07;0.90;0.90;
62631;PMS5003;48703;51.248;-0.546;2023-04-06T17:31:09;0.97;0.59;
62631;PMS5003;48703;51.248;-0.546;2023-04-06T17:34:10;2.50;1.77;
62631;PMS5003;48703;51.248;-0.546;2023-04-06T17:37:12;2.26;1.97;
62631;PMS5003;48703;51.248;-0.546;2023-04-06T17:40:14;1.74;1.74;
62631;PMS5003;48703;51.248;-0.546;2023-04-06T17:43:15;1.63;1.63;
62631;PMS5003;48703;51.248;-0.546;2023-04-06T17:46:17;1.60;1.60;
62631;PMS5003;48703;51.248;-0.546;2023-04-06T17:49:19;2.49;2.49;
62631;PMS5003;48703;51.248;-0.546;2023-04-06T17:52:20;3.53;2.64;
62631;PMS5003;48703;51.248;-0.546;2023-04-06T17:55:22;2.24;2.24;
62631;PMS5003;48703;51.248;-0.546;2023-04-06T17:58:24;2.13;2.13;
62631;PMS5003;48703;51.248;-0.546;2023-04-06T18:01:26;2.74;1.33;
62631;PMS5003;48703;51.248;-0.546;2023-04-06T18:04:27;1.11;1.11;
62631;PMS5003;48703;51.248;-0.546;2023-04-06T18:07:29;1.79;1.79;
62631;PMS5003;48703;51.248;-0.546;2023-04-06T18:10:30;1.37;0.94;
62631;PMS5003;48703;51.248;-0.546;2023-04-06T18:13:32;1.41;1.20;
62631;PMS5003;48703;51.248;-0.546;2023-04-06T18:16:33;1.04;0.97;
62631;PMS5003;48703;51.248;-0.546;2023-04-06T18:19:35;1.91;1.14;
62631;PMS5003;48703;51.248;-0.546;2023-04-06T18:22:37;2.51;1.74;
62631;PMS5003;48703;51.248;-0.546;2023-04-06T18:25:38;1.51;1.51;